KJAX/JAX METAR and TAF weather

Enter ICAO airport designator
Station Type Date Time Source
KJAX METAR 2019/10/15 17:56 UTC NOAA

KJAX 151756Z 05005KT 10SM SCT025 OVC050 28/22 A3002 RMK AO2 SLP168 60000 T02830217 10294 20228 56019


Station Type Date Time Source
KJAX Decoded METAR 2019/10/15 17:56 UTC NOAA

JACKSONVILLE INTERNATIONAL, FL, United States (KJAX) 30-30N 81-42W 7M
Oct 15, 2019 - 01:56 PM EDT / 2019.10.15 1756 UTC
Wind: from the NE (050 degrees) at 6 MPH (5 KT):0
Visibility: 10 mile(s):0
Sky conditions: overcast
Temperature: 82.9 F (28.3 C)
Dew Point: 71.1 F (21.7 C)
Relative Humidity: 67%
Pressure (altimeter): 30.02 in. Hg (1016 hPa)
Pressure tendency: 0.06 inches (1.9 hPa) lower than three hours ago
ob: KJAX 151756Z 05005KT 10SM SCT025 OVC050 28/22 A3002 RMK AO2 SLP168 60000 T02830217 10294 20228 56019
cycle: 18

Station Type Date Time Source
KJAX TAF 2019/10/15 12:36 UTC NOAA

TAF
AMD KJAX 151134Z 1512/1612 VRB03KT P6SM VCSH BKN050 OVC120
TEMPO 1512/1516 6SM -SHRA BR SCT025 OVC050
FM151700 09006KT P6SM VCSH SCT025 BKN050
FM160000 14007KT P6SM VCSH SCT020 BKN040

Example: see airport list